Time;durP1;ratioP1;P1;durP2;ratioP2;P2;SDS_P1;SDS_P2;PMS_P1;PMS_P2;Temp;Humidity;BMP_temperature;BMP_pressure;BME280_temperature;BME280_humidity;BME280_pressure;Samples;Min_cycle;Max_cycle;Signal;HPM_P1;HPM_P2
2023/07/19 00:00:50;;;;;;;;;;;;;;;;;;5050502;28;19931;-67
2023/07/19 00:03:16;;;;;;;;;;;;;;;;;;5050301;28;19931;-67
2023/07/19 00:05:43;;;;;;;;;;;;;;;;;;5051063;28;19925;-67
2023/07/19 00:08:09;;;;;;;;;;;;;;;;;;5050490;28;20275;-67
2023/07/19 00:10:36;;;;;;;;;;;;;;;;;;5050335;28;20019;-67
2023/07/19 00:13:02;;;;;;;;;;;;;;;;;;5050538;28;20391;-67
2023/07/19 00:15:30;;;;;;;;;;;;;;;;;;5050559;28;20020;-68
2023/07/19 00:17:57;;;;;;;;;;;;;;;;;;5049887;28;19925;-68
2023/07/19 00:20:23;;;;;;;;;;;;;;;;;;5050605;28;20017;-68
2023/07/19 00:22:50;;;;;;;;;;;;;;;;;;5050397;28;20435;-67
2023/07/19 00:25:16;;;;;;;;;;;;;;;;;;5050903;28;20015;-67
2023/07/19 00:27:43;;;;;;;;;;;;;;;;;;5050222;28;20027;-67
2023/07/19 00:30:10;;;;;;;;;;;;;;;;;;5050954;28;20389;-67
2023/07/19 00:32:38;;;;;;;;;;;;;;;;;;5050468;28;20241;-67
2023/07/19 00:35:04;;;;;;;;;;;;;;;;;;5050624;28;20019;-67
2023/07/19 00:37:31;;;;;;;;;;;;;;;;;;5050650;28;19925;-67
2023/07/19 00:39:58;;;;;;;;;;;;;;;;;;5049644;28;19931;-66
2023/07/19 00:42:24;;;;;;;;;;;;;;;;;;5050567;28;20539;-67
2023/07/19 00:44:51;;;;;;;;;;;;;;;;;;5050103;28;19928;-68
2023/07/19 00:47:18;;;;;;;;;;;;;;;;;;5050674;28;19924;-68
2023/07/19 00:49:46;;;;;;;;;;;;;;;;;;5049828;28;19925;-67
2023/07/19 00:52:13;;;;;;;;;;;;;;;;;;5050392;28;20340;-67
2023/07/19 00:54:40;;;;;;;;;;;;;;;;;;5049921;28;19925;-67
2023/07/19 00:57:07;;;;;;;;;;;;;;;;;;5050218;28;19929;-67
2023/07/19 00:59:34;;;;;;;;;;;;;;;;;;5049222;28;20398;-67
2023/07/19 01:02:01;;;;;;;;;;;;;;;;;;5054458;28;20303;-67
2023/07/19 01:04:29;;;;;;;;;;;;;;;;;;5053937;28;19932;-67
2023/07/19 01:06:57;;;;;;;;;;;;;;;;;;5054206;28;19929;-68
2023/07/19 01:09:24;;;;;;;;;;;;;;;;;;5054105;28;20164;-67
2023/07/19 01:11:50;;;;;;;;;;;;;;;;;;5053867;28;19924;-67
2023/07/19 01:14:16;;;;;;;;;;;;;;;;;;5054123;28;19928;-67
2023/07/19 01:16:43;;;;;;;;;;;;;;;;;;5053711;28;19931;-67
2023/07/19 01:19:10;;;;;;;;;;;;;;;;;;5054172;28;20359;-67
2023/07/19 01:21:36;;;;;;;;;;;;;;;;;;5052948;28;19929;-67
2023/07/19 01:24:05;;;;;;;;;;;;;;;;;;5054132;28;20019;-67
2023/07/19 01:26:31;;;;;;;;;;;;;;;;;;5053437;28;19968;-67
2023/07/19 01:28:58;;;;;;;;;;;;;;;;;;5053939;28;20371;-67
2023/07/19 01:31:25;;;;;;;;;;;;;;;;;;5053345;28;19924;-67
2023/07/19 01:33:51;;;;;;;;;;;;;;;;;;5054262;28;19925;-68
2023/07/19 01:36:18;;;;;;;;;;;;;;;;;;5053690;28;20336;-67
2023/07/19 01:38:44;;;;;;;;;;;;;;;;;;5053728;28;19932;-67
2023/07/19 01:41:12;;;;;;;;;;;;;;;;;;5052726;28;19935;-67
2023/07/19 01:43:38;;;;;;;;;;;;;;;;;;5054004;28;19931;-68
2023/07/19 01:46:05;;;;;;;;;;;;;;;;;;5055536;28;19925;-68
2023/07/19 01:48:31;;;;;;;;;;;;;;;;;;5053767;28;20508;-67
2023/07/19 01:50:57;;;;;;;;;;;;;;;;;;5053364;28;19935;-68
2023/07/19 01:53:24;;;;;;;;;;;;;;;;;;5053513;28;20015;-67
2023/07/19 01:55:50;;;;;;;;;;;;;;;;;;5053497;28;20374;-67
2023/07/19 01:58:18;;;;;;;;;;;;;;;;;;5053378;28;20007;-67
2023/07/19 02:00:44;;;;;;;;;;;;;;;;;;5053037;28;19928;-68
2023/07/19 02:03:11;;;;;;;;;;;;;;;;;;5053088;28;19924;-67
2023/07/19 02:05:37;;;;;;;;;;;;;;;;;;5053442;28;19935;-68
2023/07/19 02:08:04;;;;;;;;;;;;;;;;;;5052656;28;19925;-68
2023/07/19 02:10:30;;;;;;;;;;;;;;;;;;5052593;28;19931;-67
2023/07/19 02:12:56;;;;;;;;;;;;;;;;;;5052130;28;19928;-68
2023/07/19 02:15:24;;;;;;;;;;;;;;;;;;5053316;28;19931;-67
2023/07/19 02:17:51;;;;;;;;;;;;;;;;;;5052944;28;19932;-68
2023/07/19 02:20:19;;;;;;;;;;;;;;;;;;5052922;28;19925;-67
2023/07/19 02:22:45;;;;;;;;;;;;;;;;;;5052883;28;19925;-67
2023/07/19 02:25:12;;;;;;;;;;;;;;;;;;5052611;28;19925;-67
2023/07/19 02:27:38;;;;;;;;;;;;;;;;;;5053408;28;20011;-69
2023/07/19 02:30:05;;;;;;;;;;;;;;;;;;5052503;28;19924;-69
2023/07/19 02:32:33;;;;;;;;;;;;;;;;;;5052986;28;20444;-69
2023/07/19 02:35:00;;;;;;;;;;;;;;;;;;5052456;28;19925;-69
2023/07/19 02:37:26;;;;;;;;;;;;;;;;;;5052778;28;19925;-69
2023/07/19 02:39:53;;;;;;;;;;;;;;;;;;5051547;28;19924;-69
2023/07/19 02:42:19;;;;;;;;;;;;;;;;;;5052630;28;19931;-69
2023/07/19 02:44:45;;;;;;;;;;;;;;;;;;5052250;28;19979;-69
2023/07/19 02:47:12;;;;;;;;;;;;;;;;;;5052338;28;20023;-68
2023/07/19 02:49:41;;;;;;;;;;;;;;;;;;5051693;28;19924;-67
2023/07/19 02:52:08;;;;;;;;;;;;;;;;;;5051778;28;20011;-67
2023/07/19 02:54:35;;;;;;;;;;;;;;;;;;5052296;28;19930;-67
2023/07/19 02:57:01;;;;;;;;;;;;;;;;;;5052200;28;19925;-67
2023/07/19 02:59:28;;;;;;;;;;;;;;;;;;5052616;28;20344;-69
2023/07/19 03:01:54;;;;;;;;;;;;;;;;;;5051716;28;20016;-69
2023/07/19 03:04:20;;;;;;;;;;;;;;;;;;5052187;28;19925;-69
2023/07/19 03:06:49;;;;;;;;;;;;;;;;;;5051256;28;19926;-69
2023/07/19 03:09:16;;;;;;;;;;;;;;;;;;5051988;28;19925;-69
2023/07/19 03:11:42;;;;;;;;;;;;;;;;;;5051091;28;19931;-68
2023/07/19 03:14:09;;;;;;;;;;;;;;;;;;5052134;28;19925;-68
2023/07/19 03:16:36;;;;;;;;;;;;;;;;;;5052037;28;19931;-68
2023/07/19 03:19:03;;;;;;;;;;;;;;;;;;5051799;28;20553;-68
2023/07/19 03:21:30;;;;;;;;;;;;;;;;;;5050856;28;19925;-68
2023/07/19 03:23:58;;;;;;;;;;;;;;;;;;5050879;28;20363;-68
2023/07/19 03:26:24;;;;;;;;;;;;;;;;;;5051465;28;20008;-68
2023/07/19 03:28:50;;;;;;;;;;;;;;;;;;5051580;28;20016;-68
2023/07/19 03:31:17;;;;;;;;;;;;;;;;;;5051147;28;19924;-68
2023/07/19 03:33:44;;;;;;;;;;;;;;;;;;5051243;28;19931;-68
2023/07/19 03:36:10;;;;;;;;;;;;;;;;;;5051919;28;20309;-68
2023/07/19 03:38:36;;;;;;;;;;;;;;;;;;5051328;28;20297;-68
2023/07/19 03:41:07;;;;;;;;;;;;;;;;;;5051166;28;19925;-68
2023/07/19 03:43:34;;;;;;;;;;;;;;;;;;5051019;28;19932;-68
2023/07/19 03:46:00;;;;;;;;;;;;;;;;;;5051896;28;20023;-68
2023/07/19 03:48:27;;;;;;;;;;;;;;;;;;5050600;28;19935;-69
2023/07/19 03:50:57;;;;;;;;;;;;;;;;;;5057252;22;19925;-71
2023/07/19 03:53:23;;;;;;;;;;;;;;;;;;5031104;28;20352;-73
2023/07/19 03:55:53;;;;;;;;;;;;;;;;;;5031735;28;19925;-71
2023/07/19 03:58:21;;;;;;;;;;;;;;;;;;5030957;28;19925;-73
2023/07/19 04:00:48;;;;;;;;;;;;;;;;;;5030861;28;20298;-71
2023/07/19 04:03:14;;;;;;;;;;;;;;;;;;5030981;28;19975;-71
2023/07/19 04:05:41;;;;;;;;;;;;;;;;;;5031677;28;19932;-71
2023/07/19 04:08:07;;;;;;;;;;;;;;;;;;5031322;28;20383;-70
2023/07/19 04:10:33;;;;;;;;;;;;;;;;;;5030789;28;19925;-73
2023/07/19 04:13:00;;;;;;;;;;;;;;;;;;5041619;28;19924;-73
2023/07/19 04:15:27;;;;;;;;;;;;;;;;;;5050348;28;19931;-71
2023/07/19 04:17:54;;;;;;;;;;;;;;;;;;5051095;28;19929;-71
2023/07/19 04:20:22;;;;;;;;;;;;;;;;;;5050084;28;20172;-72
2023/07/19 04:22:48;;;;;;;;;;;;;;;;;;5050847;28;20358;-73
2023/07/19 04:25:15;;;;;;;;;;;;;;;;;;5050523;28;19932;-70
2023/07/19 04:27:41;;;;;;;;;;;;;;;;;;5050770;28;19925;-71
2023/07/19 04:30:08;;;;;;;;;;;;;;;;;;5049850;28;19924;-71
2023/07/19 04:32:36;;;;;;;;;;;;;;;;;;5050903;28;19924;-73
2023/07/19 04:35:02;;;;;;;;;;;;;;;;;;5049901;28;20618;-71
2023/07/19 04:37:28;;;;;;;;;;;;;;;;;;5050371;28;19931;-72
2023/07/19 04:39:55;;;;;;;;;;;;;;;;;;5049943;28;19924;-69
2023/07/19 04:42:22;;;;;;;;;;;;;;;;;;5050112;28;20019;-71
2023/07/19 04:44:49;;;;;;;;;;;;;;;;;;5050395;28;20357;-72
2023/07/19 04:47:15;;;;;;;;;;;;;;;;;;5050116;28;19939;-71
2023/07/19 04:49:43;;;;;;;;;;;;;;;;;;5050090;28;19925;-71
2023/07/19 04:52:09;;;;;;;;;;;;;;;;;;5049688;28;20031;-71
2023/07/19 04:54:35;;;;;;;;;;;;;;;;;;5050397;28;20004;-71
2023/07/19 04:57:02;;;;;;;;;;;;;;;;;;5049584;28;19931;-71
2023/07/19 04:59:28;;;;;;;;;;;;;;;;;;5050323;28;20437;-69
2023/07/19 05:01:55;;;;;;;;;;;;;;;;;;5049912;28;19925;-70
2023/07/19 05:04:21;;;;;;;;;;;;;;;;;;5050468;28;19931;-71
2023/07/19 05:06:49;;;;;;;;;;;;;;;;;;5050474;28;19929;-72
2023/07/19 05:09:16;;;;;;;;;;;;;;;;;;5050340;28;19925;-72
2023/07/19 05:11:42;;;;;;;;;;;;;;;;;;5049724;28;20386;-71
2023/07/19 05:14:09;;;;;;;;;;;;;;;;;;5050971;28;19925;-71
2023/07/19 05:16:35;;;;;;;;;;;;;;;;;;5050712;28;20336;-72
2023/07/19 05:19:02;;;;;;;;;;;;;;;;;;5050375;28;19931;-72
2023/07/19 05:21:29;;;;;;;;;;;;;;;;;;5049909;28;19970;-71
2023/07/19 05:23:57;;;;;;;;;;;;;;;;;;5050310;28;19925;-72
2023/07/19 05:26:25;;;;;;;;;;;;;;;;;;5051167;28;19924;-71
2023/07/19 05:28:51;;;;;;;;;;;;;;;;;;5051213;28;19932;-72
2023/07/19 05:31:18;;;;;;;;;;;;;;;;;;5050877;28;19936;-72
2023/07/19 05:33:44;;;;;;;;;;;;;;;;;;5050601;28;20031;-72
2023/07/19 05:36:11;;;;;;;;;;;;;;;;;;5050203;28;19924;-71
2023/07/19 05:38:37;;;;;;;;;;;;;;;;;;5048060;28;20481;-72
2023/07/19 05:41:06;;;;;;;;;;;;;;;;;;5029679;28;19932;-72
2023/07/19 05:43:32;;;;;;;;;;;;;;;;;;5029657;28;20314;-72
2023/07/19 05:46:05;;;;;;;;;;;;;;;;;;5030281;28;19932;-72
2023/07/19 05:48:32;;;;;;;;;;;;;;;;;;5032784;28;19925;-70
2023/07/19 05:50:59;;;;;;;;;;;;;;;;;;5033301;28;19929;-70
2023/07/19 05:53:25;;;;;;;;;;;;;;;;;;5034298;28;19960;-72
2023/07/19 05:55:52;;;;;;;;;;;;;;;;;;5034015;28;20334;-72
2023/07/19 05:58:20;;;;;;;;;;;;;;;;;;5034208;28;20015;-72
2023/07/19 06:00:47;;;;;;;;;;;;;;;;;;5033503;28;19925;-71
2023/07/19 06:03:16;;;;;;;;;;;;;;;;;;5033961;28;19925;-72
2023/07/19 06:05:43;;;;;;;;;;;;;;;;;;5032970;28;19929;-69
2023/07/19 06:08:09;;;;;;;;;;;;;;;;;;5033653;28;20474;-72
2023/07/19 06:10:35;;;;;;;;;;;;;;;;;;5032905;28;19925;-73
2023/07/19 06:13:03;;;;;;;;;;;;;;;;;;5033579;28;20008;-72
2023/07/19 06:15:31;;;;;;;;;;;;;;;;;;5033093;28;20298;-72
2023/07/19 06:17:58;;;;;;;;;;;;;;;;;;5033544;28;19929;-72
2023/07/19 06:20:24;;;;;;;;;;;;;;;;;;5032314;28;19929;-72
2023/07/19 06:22:51;;;;;;;;;;;;;;;;;;5030603;28;20370;-71
2023/07/19 06:25:17;;;;;;;;;;;;;;;;;;5031688;28;20327;-70
2023/07/19 06:27:43;;;;;;;;;;;;;;;;;;5031727;28;19925;-72
2023/07/19 06:30:11;;;;;;;;;;;;;;;;;;5031525;28;19925;-72
2023/07/19 06:32:39;;;;;;;;;;;;;;;;;;5031420;28;19925;-70
2023/07/19 06:35:07;;;;;;;;;;;;;;;;;;5031532;28;19972;-69
2023/07/19 06:37:34;;;;;;;;;;;;;;;;;;5031358;28;19926;-72
2023/07/19 06:40:02;;;;;;;;;;;;;;;;;;5031560;28;19926;-72
2023/07/19 06:42:29;;;;;;;;;;;;;;;;;;5031380;28;19925;-71
2023/07/19 06:44:56;;;;;;;;;;;;;;;;;;5046595;28;20405;-72
2023/07/19 06:47:22;;;;;;;;;;;;;;;;;;5051294;28;20345;-72
2023/07/19 06:49:50;;;;;;;;;;;;;;;;;;5050903;28;20202;-73
2023/07/19 06:52:17;;;;;;;;;;;;;;;;;;5051502;28;19925;-71
2023/07/19 06:54:43;;;;;;;;;;;;;;;;;;5044710;28;19941;-72
2023/07/19 06:57:10;;;;;;;;;;;;;;;;;;5034500;28;19925;-72
2023/07/19 06:59:36;;;;;;;;;;;;;;;;;;5030054;28;19925;-71
2023/07/19 07:02:02;;;;;;;;;;;;;;;;;;5030693;28;20089;-72
2023/07/19 07:04:29;;;;;;;;;;;;;;;;;;5030697;28;19929;-72
2023/07/19 07:06:56;;;;;;;;;;;;;;;;;;5031434;28;19925;-72
2023/07/19 07:09:23;;;;;;;;;;;;;;;;;;5031083;28;20286;-72
2023/07/19 07:11:49;;;;;;;;;;;;;;;;;;5030334;28;20162;-72
2023/07/19 07:14:16;;;;;;;;;;;;;;;;;;5031092;28;19975;-72
2023/07/19 07:16:42;;;;;;;;;;;;;;;;;;5030293;28;19932;-72
2023/07/19 07:19:09;;;;;;;;;;;;;;;;;;5031288;28;19933;-70
2023/07/19 07:21:35;;;;;;;;;;;;;;;;;;5030132;28;20339;-72
2023/07/19 07:24:03;;;;;;;;;;;;;;;;;;5031661;28;19937;-72
2023/07/19 07:26:30;;;;;;;;;;;;;;;;;;5030345;28;19932;-71
2023/07/19 07:28:57;;;;;;;;;;;;;;;;;;5031184;28;19929;-69
2023/07/19 07:31:23;;;;;;;;;;;;;;;;;;5030190;28;19925;-71
2023/07/19 07:33:49;;;;;;;;;;;;;;;;;;5030741;28;19925;-72
2023/07/19 07:36:16;;;;;;;;;;;;;;;;;;5031057;28;19935;-72
2023/07/19 07:38:42;;;;;;;;;;;;;;;;;;5030363;28;19947;-72
2023/07/19 07:41:11;;;;;;;;;;;;;;;;;;5030063;28;19929;-72
2023/07/19 07:43:37;;;;;;;;;;;;;;;;;;5029419;28;19925;-71
2023/07/19 07:46:04;;;;;;;;;;;;;;;;;;5030752;28;19929;-71
2023/07/19 07:48:30;;;;;;;;;;;;;;;;;;5030046;28;19931;-72
2023/07/19 07:50:57;;;;;;;;;;;;;;;;;;5030081;28;19925;-71
2023/07/19 07:53:23;;;;;;;;;;;;;;;;;;5030772;28;19925;-72
2023/07/19 07:55:49;;;;;;;;;;;;;;;;;;5029014;28;19933;-71
2023/07/19 07:58:17;;;;;;;;;;;;;;;;;;5044005;28;20306;-72
2023/07/19 08:00:46;;;;;;;;;;;;;;;;;;5049205;28;19943;-71
2023/07/19 08:03:13;;;;;;;;;;;;;;;;;;5050242;28;20350;-71
2023/07/19 08:05:40;;;;;;;;;;;;;;;;;;5049894;28;20416;-72
2023/07/19 08:08:07;;;;;;;;;;;;;;;;;;5049659;28;19931;-72
2023/07/19 08:10:34;;;;;;;;;;;;;;;;;;5048464;28;19932;-72
2023/07/19 08:13:00;;;;;;;;;;;;;;;;;;5049598;28;19987;-70
2023/07/19 08:15:28;;;;;;;;;;;;;;;;;;5041649;28;20349;-72
2023/07/19 08:17:54;;;;;;;;;;;;;;;;;;5029643;28;19925;-71
2023/07/19 08:20:24;;;;;;;;;;;;;;;;;;5030682;28;19925;-72
2023/07/19 08:22:51;;;;;;;;;;;;;;;;;;5028938;28;19925;-72
2023/07/19 08:25:19;;;;;;;;;;;;;;;;;;5028814;28;20283;-72
2023/07/19 08:27:45;;;;;;;;;;;;;;;;;;5031599;28;20430;-72
2023/07/19 08:30:15;;;;;;;;;;;;;;;;;;5050193;28;19932;-72
2023/07/19 08:32:44;;;;;;;;;;;;;;;;;;5049436;28;20411;-72
2023/07/19 08:35:10;;;;;;;;;;;;;;;;;;5049704;28;19925;-73
2023/07/19 08:37:36;;;;;;;;;;;;;;;;;;5049073;28;20310;-71
2023/07/19 08:40:03;;;;;;;;;;;;;;;;;;5048516;28;19925;-71
2023/07/19 08:42:30;;;;;;;;;;;;;;;;;;5049891;28;19931;-72
2023/07/19 08:44:56;;;;;;;;;;;;;;;;;;5048994;28;19951;-72
2023/07/19 08:47:23;;;;;;;;;;;;;;;;;;5050474;28;20380;-72
2023/07/19 08:49:52;;;;;;;;;;;;;;;;;;5049906;28;20194;-71
2023/07/19 08:52:18;;;;;;;;;;;;;;;;;;5050602;28;19929;-72
2023/07/19 08:54:45;;;;;;;;;;;;;;;;;;5049772;28;19929;-72
2023/07/19 08:57:11;;;;;;;;;;;;;;;;;;5050914;28;19925;-72
2023/07/19 08:59:38;;;;;;;;;;;;;;;;;;5049478;28;19925;-71
2023/07/19 09:02:04;;;;;;;;;;;;;;;;;;5050163;28;20015;-72
2023/07/19 09:04:33;;;;;;;;;;;;;;;;;;5050163;28;19931;-72
2023/07/19 09:07:04;;;;;;;;;;;;;;;;;;5049684;28;20309;-70
2023/07/19 09:09:30;;;;;;;;;;;;;;;;;;5050259;28;19928;-70
2023/07/19 09:11:57;;;;;;;;;;;;;;;;;;5049783;28;19931;-72
2023/07/19 09:14:34;;;;;;;;;;;;;;;;;;5050215;28;19925;-72
2023/07/19 09:17:01;;;;;;;;;;;;;;;;;;5049885;28;19932;-72
2023/07/19 09:19:27;;;;;;;;;;;;;;;;;;5050043;28;20275;-73
2023/07/19 09:21:54;;;;;;;;;;;;;;;;;;5050158;28;19932;-73
2023/07/19 09:24:21;;;;;;;;;;;;;;;;;;5053986;28;19926;-71
2023/07/19 09:26:49;;;;;;;;;;;;;;;;;;5053727;28;19932;-73
2023/07/19 09:29:15;;;;;;;;;;;;;;;;;;5054277;28;19932;-73
2023/07/19 09:31:53;;;;;;;;;;;;;;;;;;5053080;28;19925;-73
2023/07/19 09:34:19;;;;;;;;;;;;;;;;;;5054339;28;19933;-72
2023/07/19 09:36:46;;;;;;;;;;;;;;;;;;5053643;28;19925;-72
2023/07/19 09:39:12;;;;;;;;;;;;;;;;;;5053845;28;20378;-70
2023/07/19 09:41:41;;;;;;;;;;;;;;;;;;5052966;28;19959;-72
2023/07/19 09:44:09;;;;;;;;;;;;;;;;;;5053619;28;19925;-73
2023/07/19 09:46:37;;;;;;;;;;;;;;;;;;5053602;28;19932;-71
2023/07/19 09:49:03;;;;;;;;;;;;;;;;;;5053727;28;20034;-73
2023/07/19 09:51:30;;;;;;;;;;;;;;;;;;5065143;22;19924;-67
2023/07/19 09:53:58;;;;;;;;;;;;;;;;;;5053052;28;19925;-67
2023/07/19 09:56:25;;;;;;;;;;;;;;;;;;5053473;28;19931;-67
2023/07/19 09:58:53;;;;;;;;;;;;;;;;;;5052853;28;19929;-67
2023/07/19 10:01:19;;;;;;;;;;;;;;;;;;5052621;28;20385;-67
2023/07/19 10:03:46;;;;;;;;;;;;;;;;;;5052931;28;20377;-66
2023/07/19 10:06:13;;;;;;;;;;;;;;;;;;5053466;28;19931;-67
2023/07/19 10:08:40;;;;;;;;;;;;;;;;;;5052749;28;19924;-67
2023/07/19 10:11:06;;;;;;;;;;;;;;;;;;5052488;28;19931;-68
2023/07/19 10:13:51;;;;;;;;;;;;;;;;;;5047678;28;19932;-67
2023/07/19 10:16:23;;;;;;;;;;;;;;;;;;5053104;28;20021;-67
2023/07/19 10:19:08;;;;;;;;;;;;;;;;;;5052307;28;19945;-67
2023/07/19 10:21:34;;;;;;;;;;;;;;;;;;5052133;28;19925;-67
2023/07/19 10:24:05;;;;;;;;;;;;;;;;;;5052319;28;20038;-68
2023/07/19 10:26:35;;;;;;;;;;;;;;;;;;5052943;28;20397;-68
2023/07/19 10:29:02;;;;;;;;;;;;;;;;;;5053019;28;19931;-68
2023/07/19 10:31:30;;;;;;;;;;;;;;;;;;5051674;28;20019;-67
2023/07/19 10:33:56;;;;;;;;;;;;;;;;;;5051936;28;19925;-67
2023/07/19 10:36:23;;;;;;;;;;;;;;;;;;5052152;28;19925;-67
2023/07/19 10:38:49;;;;;;;;;;;;;;;;;;5052389;28;20019;-66
2023/07/19 10:41:19;;;;;;;;;;;;;;;;;;5051937;28;19924;-67
2023/07/19 10:43:46;;;;;;;;;;;;;;;;;;5051932;28;19925;-67
2023/07/19 10:46:12;;;;;;;;;;;;;;;;;;5051894;28;19951;-67
2023/07/19 10:48:40;;;;;;;;;;;;;;;;;;5052445;28;19983;-67
2023/07/19 10:51:07;;;;;;;;;;;;;;;;;;5050975;28;19931;-68
2023/07/19 10:53:40;;;;;;;;;;;;;;;;;;5052439;28;20370;-67
2023/07/19 10:56:07;;;;;;;;;;;;;;;;;;5052384;28;20306;-67
2023/07/19 10:58:33;;;;;;;;;;;;;;;;;;5051569;28;19925;-67
2023/07/19 11:01:00;;;;;;;;;;;;;;;;;;5051799;28;19971;-67
2023/07/19 11:03:26;;;;;;;;;;;;;;;;;;5051399;28;20295;-67
2023/07/19 11:05:54;;;;;;;;;;;;;;;;;;5051991;28;19929;-67
2023/07/19 11:08:21;;;;;;;;;;;;;;;;;;5051615;28;19925;-67
2023/07/19 11:10:48;;;;;;;;;;;;;;;;;;5051367;28;19925;-67
2023/07/19 11:13:14;;;;;;;;;;;;;;;;;;5051462;28;20298;-68
2023/07/19 11:15:42;;;;;;;;;;;;;;;;;;5051754;28;19924;-67
2023/07/19 11:18:08;;;;;;;;;;;;;;;;;;5051137;28;19931;-68
2023/07/19 11:20:39;;;;;;;;;;;;;;;;;;5051163;28;19935;-67
2023/07/19 11:23:08;;;;;;;;;;;;;;;;;;5051723;28;19931;-67
2023/07/19 11:25:34;;;;;;;;;;;;;;;;;;5051387;28;19932;-67
2023/07/19 11:28:01;;;;;;;;;;;;;;;;;;5051678;28;19978;-67
2023/07/19 11:30:36;;;;;;;;;;;;;;;;;;5050806;28;19924;-67
2023/07/19 11:33:02;;;;;;;;;;;;;;;;;;5051643;28;19929;-68
2023/07/19 11:35:29;;;;;;;;;;;;;;;;;;5051279;28;19925;-68
2023/07/19 11:37:56;;;;;;;;;;;;;;;;;;5051892;28;20047;-66
2023/07/19 11:40:25;;;;;;;;;;;;;;;;;;5050535;28;19928;-67
2023/07/19 11:42:54;;;;;;;;;;;;;;;;;;5050864;28;20409;-67
2023/07/19 11:45:21;;;;;;;;;;;;;;;;;;5049742;28;19925;-67
2023/07/19 11:47:49;;;;;;;;;;;;;;;;;;5051437;28;19925;-67
2023/07/19 11:50:16;;;;;;;;;;;;;;;;;;5050506;28;19925;-67
2023/07/19 11:52:44;;;;;;;;;;;;;;;;;;5051088;28;19932;-68
2023/07/19 11:55:11;;;;;;;;;;;;;;;;;;5050853;28;19971;-68
2023/07/19 11:57:38;;;;;;;;;;;;;;;;;;5050953;28;19932;-67
2023/07/19 12:00:06;;;;;;;;;;;;;;;;;;5049984;28;19925;-67
2023/07/19 12:02:33;;;;;;;;;;;;;;;;;;5050995;28;19933;-67
2023/07/19 12:04:59;;;;;;;;;;;;;;;;;;5051110;28;20305;-68
2023/07/19 12:07:25;;;;;;;;;;;;;;;;;;5050567;28;20039;-67
2023/07/19 12:09:52;;;;;;;;;;;;;;;;;;5050623;28;19924;-67
2023/07/19 12:12:18;;;;;;;;;;;;;;;;;;5050264;28;19925;-67
2023/07/19 12:14:46;;;;;;;;;;;;;;;;;;5050684;28;19978;-69
2023/07/19 12:17:12;;;;;;;;;;;;;;;;;;5050553;28;19925;-68
2023/07/19 12:19:38;;;;;;;;;;;;;;;;;;5050485;28;19932;-68
2023/07/19 12:22:05;;;;;;;;;;;;;;;;;;5050199;28;19924;-70
2023/07/19 12:24:30;;;;;;;;;;;;;;;;;;5050946;28;20130;-70
2023/07/19 12:26:57;;;;;;;;;;;;;;;;;;5050068;28;20046;-70
2023/07/19 12:29:25;;;;;;;;;;;;;;;;;;5050482;28;19952;-70
2023/07/19 12:31:53;;;;;;;;;;;;;;;;;;5050053;28;19929;-70
2023/07/19 12:34:20;;;;;;;;;;;;;;;;;;5050647;28;19924;-67
2023/07/19 12:36:47;;;;;;;;;;;;;;;;;;5050486;28;20397;-70
2023/07/19 12:39:13;;;;;;;;;;;;;;;;;;5050443;28;19975;-68
2023/07/19 12:41:40;;;;;;;;;;;;;;;;;;5049817;28;19925;-68
2023/07/19 12:44:06;;;;;;;;;;;;;;;;;;5051206;28;20374;-68
2023/07/19 12:46:33;;;;;;;;;;;;;;;;;;5050990;28;19932;-69
2023/07/19 12:49:01;;;;;;;;;;;;;;;;;;5050736;28;20023;-69
2023/07/19 12:51:28;;;;;;;;;;;;;;;;;;5050193;28;19931;-69
2023/07/19 12:53:57;;;;;;;;;;;;;;;;;;5050256;28;19925;-68
2023/07/19 12:56:23;;;;;;;;;;;;;;;;;;5052165;28;19929;-70
2023/07/19 12:58:50;;;;;;;;;;;;;;;;;;5054686;28;19925;-69
2023/07/19 13:01:16;;;;;;;;;;;;;;;;;;5054651;28;20294;-69
2023/07/19 13:03:43;;;;;;;;;;;;;;;;;;5054201;28;20374;-68
2023/07/19 13:06:11;;;;;;;;;;;;;;;;;;5054646;28;19925;-68
2023/07/19 13:08:39;;;;;;;;;;;;;;;;;;5053581;28;20386;-68
2023/07/19 13:11:06;;;;;;;;;;;;;;;;;;5054267;28;19928;-68
2023/07/19 13:13:33;;;;;;;;;;;;;;;;;;5054341;28;19924;-68
2023/07/19 13:15:59;;;;;;;;;;;;;;;;;;5053846;28;19931;-68
2023/07/19 13:18:27;;;;;;;;;;;;;;;;;;5054227;28;20297;-68
2023/07/19 13:20:54;;;;;;;;;;;;;;;;;;5053424;28;20416;-68
2023/07/19 13:23:21;;;;;;;;;;;;;;;;;;5054246;28;19924;-68
2023/07/19 13:25:48;;;;;;;;;;;;;;;;;;5053735;28;20390;-69
2023/07/19 13:28:14;;;;;;;;;;;;;;;;;;5054030;28;19935;-69
2023/07/19 13:30:40;;;;;;;;;;;;;;;;;;5053042;28;19925;-68
2023/07/19 13:33:08;;;;;;;;;;;;;;;;;;5053854;28;20357;-68
2023/07/19 13:35:34;;;;;;;;;;;;;;;;;;5053298;28;19990;-68
2023/07/19 13:38:01;;;;;;;;;;;;;;;;;;5053655;28;19929;-68
2023/07/19 13:40:28;;;;;;;;;;;;;;;;;;5053038;28;20400;-68
2023/07/19 13:42:55;;;;;;;;;;;;;;;;;;5053877;28;19925;-69
2023/07/19 13:45:21;;;;;;;;;;;;;;;;;;5052932;28;19925;-68
2023/07/19 13:47:48;;;;;;;;;;;;;;;;;;5054165;28;20255;-68
2023/07/19 13:50:14;;;;;;;;;;;;;;;;;;5052971;28;20291;-68
2023/07/19 13:52:41;;;;;;;;;;;;;;;;;;5050730;28;19935;-69
2023/07/19 13:55:07;;;;;;;;;;;;;;;;;;5053636;28;20388;-68
2023/07/19 13:57:35;;;;;;;;;;;;;;;;;;5053478;28;19928;-68
2023/07/19 14:00:03;;;;;;;;;;;;;;;;;;5053186;28;20009;-68
2023/07/19 14:02:29;;;;;;;;;;;;;;;;;;5052974;28;19929;-68
2023/07/19 14:04:56;;;;;;;;;;;;;;;;;;5052708;28;20290;-68
2023/07/19 14:07:22;;;;;;;;;;;;;;;;;;5052353;28;20168;-68
2023/07/19 14:09:49;;;;;;;;;;;;;;;;;;5052974;28;20452;-68
2023/07/19 14:12:15;;;;;;;;;;;;;;;;;;5052876;28;19931;-68
2023/07/19 14:14:43;;;;;;;;;;;;;;;;;;5053142;28;19939;-68
2023/07/19 14:17:09;;;;;;;;;;;;;;;;;;5052890;28;19925;-68
2023/07/19 14:19:36;;;;;;;;;;;;;;;;;;5051923;28;20309;-68
2023/07/19 14:22:02;;;;;;;;;;;;;;;;;;5050295;28;19929;-68
2023/07/19 14:24:29;;;;;;;;;;;;;;;;;;5052623;28;20238;-68
2023/07/19 14:26:55;;;;;;;;;;;;;;;;;;5053130;28;20370;-68
2023/07/19 14:29:21;;;;;;;;;;;;;;;;;;5052512;28;19924;-68
2023/07/19 14:31:49;;;;;;;;;;;;;;;;;;5052531;28;19925;-68
2023/07/19 14:34:16;;;;;;;;;;;;;;;;;;5052388;28;20008;-68
2023/07/19 14:36:42;;;;;;;;;;;;;;;;;;5053158;28;19925;-69
2023/07/19 14:39:09;;;;;;;;;;;;;;;;;;5052531;28;19925;-68
2023/07/19 14:41:35;;;;;;;;;;;;;;;;;;5052388;28;19925;-68
2023/07/19 14:44:02;;;;;;;;;;;;;;;;;;5052811;28;19925;-68
2023/07/19 14:46:28;;;;;;;;;;;;;;;;;;5052228;28;20014;-68
2023/07/19 14:48:56;;;;;;;;;;;;;;;;;;5052475;28;20378;-68
2023/07/19 14:51:22;;;;;;;;;;;;;;;;;;5051516;28;19925;-68
2023/07/19 14:53:49;;;;;;;;;;;;;;;;;;5052765;28;19931;-69
2023/07/19 14:56:16;;;;;;;;;;;;;;;;;;5052224;28;19925;-69
2023/07/19 14:58:43;;;;;;;;;;;;;;;;;;5051783;28;20405;-68
2023/07/19 15:01:10;;;;;;;;;;;;;;;;;;5030869;28;19933;-68
2023/07/19 15:03:36;;;;;;;;;;;;;;;;;;5032995;28;20288;-68
2023/07/19 15:06:04;;;;;;;;;;;;;;;;;;5032672;28;19925;-68
2023/07/19 15:08:30;;;;;;;;;;;;;;;;;;5032700;28;20391;-69
2023/07/19 15:10:57;;;;;;;;;;;;;;;;;;5031624;28;19925;-68
2023/07/19 15:13:23;;;;;;;;;;;;;;;;;;5032454;28;19925;-69
2023/07/19 15:15:50;;;;;;;;;;;;;;;;;;5031562;28;20029;-68
2023/07/19 15:18:16;;;;;;;;;;;;;;;;;;5031366;28;20020;-69
2023/07/19 15:20:43;;;;;;;;;;;;;;;;;;5047635;28;19925;-69
2023/07/19 15:23:10;;;;;;;;;;;;;;;;;;5051253;28;19986;-68
2023/07/19 15:25:37;;;;;;;;;;;;;;;;;;5051491;28;20378;-68
2023/07/19 15:28:04;;;;;;;;;;;;;;;;;;5051118;28;19931;-69
2023/07/19 15:30:30;;;;;;;;;;;;;;;;;;5048069;28;19925;-69
2023/07/19 15:32:57;;;;;;;;;;;;;;;;;;5051183;28;19925;-69
2023/07/19 15:35:23;;;;;;;;;;;;;;;;;;5051434;28;19931;-68
2023/07/19 15:37:49;;;;;;;;;;;;;;;;;;5051773;28;20016;-69
2023/07/19 15:40:17;;;;;;;;;;;;;;;;;;5050655;28;19924;-68
2023/07/19 15:42:44;;;;;;;;;;;;;;;;;;5051107;28;19925;-69
2023/07/19 15:45:11;;;;;;;;;;;;;;;;;;5050946;28;19940;-69
2023/07/19 15:47:38;;;;;;;;;;;;;;;;;;5051340;28;19924;-69
2023/07/19 15:50:05;;;;;;;;;;;;;;;;;;5050407;28;19925;-68
2023/07/19 15:52:31;;;;;;;;;;;;;;;;;;5030922;22;19971;-66
2023/07/19 15:54:57;;;;;;;;;;;;;;;;;;5011508;28;19925;-66
2023/07/19 15:57:25;;;;;;;;;;;;;;;;;;5011553;28;19933;-66
2023/07/19 15:59:51;;;;;;;;;;;;;;;;;;5009228;28;20386;-68
2023/07/19 16:02:18;;;;;;;;;;;;;;;;;;5011111;28;19952;-68
2023/07/19 16:04:44;;;;;;;;;;;;;;;;;;5011630;28;19926;-66
2023/07/19 16:07:11;;;;;;;;;;;;;;;;;;5011366;28;20283;-69
2023/07/19 16:09:37;;;;;;;;;;;;;;;;;;5011162;28;19926;-69
2023/07/19 16:12:04;;;;;;;;;;;;;;;;;;5011044;28;19925;-69
2023/07/19 16:14:31;;;;;;;;;;;;;;;;;;5011285;28;19992;-68
2023/07/19 16:16:58;;;;;;;;;;;;;;;;;;5011469;28;19926;-68
2023/07/19 16:19:24;;;;;;;;;;;;;;;;;;5011677;28;20197;-68
2023/07/19 16:21:50;;;;;;;;;;;;;;;;;;5010221;28;19932;-68
2023/07/19 16:24:17;;;;;;;;;;;;;;;;;;5011327;28;19926;-68
2023/07/19 16:26:43;;;;;;;;;;;;;;;;;;5011135;28;19926;-68
2023/07/19 16:29:10;;;;;;;;;;;;;;;;;;5010792;28;19932;-68
2023/07/19 16:31:37;;;;;;;;;;;;;;;;;;5010235;28;19929;-67
2023/07/19 16:34:04;;;;;;;;;;;;;;;;;;5010850;28;19929;-67
2023/07/19 16:36:30;;;;;;;;;;;;;;;;;;5011204;28;19925;-67
2023/07/19 16:38:56;;;;;;;;;;;;;;;;;;5010735;28;19925;-67
2023/07/19 16:41:23;;;;;;;;;;;;;;;;;;5010297;28;19929;-68
2023/07/19 16:43:49;;;;;;;;;;;;;;;;;;5010606;28;19949;-68